Huntingdon, Pennsylvania
Current Conditions -  °F | °C
As of 10:53 PM on Tuesday 21 Oct 2014 (Local Time) from KAOO Reporting Station
Light Rain Light Rain  
Wind Chill: 49°   Ceiling: 2200
Heat Index: 49°   Visibility: 10mi
Dew Point: 47°   Wind: 0mph
Humidity: 93%   Direction: NA
Pressure: 29.97"   Gusts: NA
Location:  40.48°N, 78.01°W
Report Text: KAOO 220253Z AUTO 00000KT 10SM -RA SCT012 OVC022 09/08 A2997 RMK AO2 RAB0157E17B49 SLP150 P0001 60001 T00940083 51014
Loading
Personal Weather Stations






























Interactive Weather Map
Tropical Storm Tracking
New forecast layout! Learn more

10-Day Weather Forecast

Advertisements
Track Severe Weather on mobile